Portillo, Chile
Current Conditions -  °F | °C
As of 4:00 AM on Friday 24 Oct 2014 (Local Time) from SCAT Reporting Station
NA  
Wind Chill: 55°   Ceiling: NA
Heat Index: 55°   Visibility: 6mi
Dew Point: 52°   Wind: 6mph
Humidity: 88%   Direction: 110°ESE
Pressure: 29.97"   Gusts: NA
Location:  25.47°S, 70.12°W
Report Text: SCAT 240800Z AUTO 11005KT 9999 // ///007 13/11 Q1015
Loading
Personal Weather Stations






























Interactive Weather Map
Tropical Storm Tracking
New forecast layout! Learn more

10-Day Weather Forecast

Advertisements
Track Severe Weather on mobile